sensor_id;sensor_type;location;lat;lon;timestamp;pressure;altitude;pressure_sealevel;temperature;humidity
5380;BME280;2713;42.680;23.310;2023-04-01T00:01:14;94207.38;;;14.90;54.78
5380;BME280;2713;42.680;23.310;2023-04-01T00:03:43;94194.09;;;14.92;54.51
5380;BME280;2713;42.680;23.310;2023-04-01T00:06:12;94202.16;;;14.90;54.06
5380;BME280;2713;42.680;23.310;2023-04-01T00:08:40;94193.50;;;14.90;54.27
5380;BME280;2713;42.680;23.310;2023-04-01T00:11:06;94195.69;;;14.93;54.25
5380;BME280;2713;42.680;23.310;2023-04-01T00:13:33;94198.25;;;14.69;54.04
5380;BME280;2713;42.680;23.310;2023-04-01T00:16:01;94203.13;;;14.66;53.74
5380;BME280;2713;42.680;23.310;2023-04-01T00:18:30;94187.78;;;14.69;54.03
5380;BME280;2713;42.680;23.310;2023-04-01T00:20:58;94203.16;;;14.78;53.96
5380;BME280;2713;42.680;23.310;2023-04-01T00:23:25;94201.78;;;14.63;54.05
5380;BME280;2713;42.680;23.310;2023-04-01T00:25:52;94210.97;;;14.54;53.99
5380;BME280;2713;42.680;23.310;2023-04-01T00:28:19;94206.59;;;14.37;53.56
5380;BME280;2713;42.680;23.310;2023-04-01T00:30:47;94197.41;;;14.16;54.10
5380;BME280;2713;42.680;23.310;2023-04-01T00:33:14;94195.53;;;14.05;54.45
5380;BME280;2713;42.680;23.310;2023-04-01T00:35:41;94206.41;;;13.90;55.50
5380;BME280;2713;42.680;23.310;2023-04-01T00:38:10;94194.75;;;13.56;56.53
5380;BME280;2713;42.680;23.310;2023-04-01T00:40:38;94203.16;;;13.58;57.24
5380;BME280;2713;42.680;23.310;2023-04-01T00:43:11;94191.56;;;13.54;58.85
5380;BME280;2713;42.680;23.310;2023-04-01T00:45:41;94187.06;;;13.61;58.59
5380;BME280;2713;42.680;23.310;2023-04-01T00:48:10;94185.75;;;13.70;59.08
5380;BME280;2713;42.680;23.310;2023-04-01T00:50:44;94172.59;;;13.77;58.76
5380;BME280;2713;42.680;23.310;2023-04-01T00:53:14;94161.50;;;13.82;58.37
5380;BME280;2713;42.680;23.310;2023-04-01T00:55:46;94156.63;;;13.85;59.55
5380;BME280;2713;42.680;23.310;2023-04-01T00:58:17;94164.97;;;13.94;58.93
5380;BME280;2713;42.680;23.310;2023-04-01T01:00:46;94162.03;;;14.02;59.77
5380;BME280;2713;42.680;23.310;2023-04-01T01:03:14;94150.13;;;13.76;61.15
5380;BME280;2713;42.680;23.310;2023-04-01T01:06:08;94146.09;;;13.92;59.31
5380;BME280;2713;42.680;23.310;2023-04-01T01:08:52;94140.69;;;14.05;60.15
5380;BME280;2713;42.680;23.310;2023-04-01T01:11:31;94138.31;;;14.15;60.62
5380;BME280;2713;42.680;23.310;2023-04-01T01:14:07;94134.38;;;14.24;60.42
5380;BME280;2713;42.680;23.310;2023-04-01T01:16:43;94128.91;;;14.26;60.27
5380;BME280;2713;42.680;23.310;2023-04-01T01:19:24;94120.06;;;14.27;57.85
5380;BME280;2713;42.680;23.310;2023-04-01T01:22:12;94117.59;;;14.02;58.70
5380;BME280;2713;42.680;23.310;2023-04-01T01:24:54;94124.69;;;14.13;58.03
5380;BME280;2713;42.680;23.310;2023-04-01T01:27:25;94116.53;;;14.21;59.65
5380;BME280;2713;42.680;23.310;2023-04-01T01:30:12;94112.63;;;14.12;59.29
5380;BME280;2713;42.680;23.310;2023-04-01T01:33:15;94102.78;;;14.14;59.30
5380;BME280;2713;42.680;23.310;2023-04-01T01:35:49;94102.03;;;13.95;58.64
5380;BME280;2713;42.680;23.310;2023-04-01T01:38:21;94106.84;;;14.10;57.82
5380;BME280;2713;42.680;23.310;2023-04-01T01:40:55;94108.41;;;14.11;57.09
5380;BME280;2713;42.680;23.310;2023-04-01T01:43:25;94098.50;;;13.90;56.88
5380;BME280;2713;42.680;23.310;2023-04-01T01:45:55;94105.56;;;13.71;57.69
5380;BME280;2713;42.680;23.310;2023-04-01T01:48:24;94100.31;;;13.89;56.41
5380;BME280;2713;42.680;23.310;2023-04-01T01:50:54;94105.78;;;13.99;57.19
5380;BME280;2713;42.680;23.310;2023-04-01T01:53:21;94094.44;;;14.05;57.98
5380;BME280;2713;42.680;23.310;2023-04-01T01:55:48;94111.63;;;14.13;58.61
5380;BME280;2713;42.680;23.310;2023-04-01T01:58:19;94094.50;;;13.87;58.97
5380;BME280;2713;42.680;23.310;2023-04-01T02:00:51;94084.88;;;13.58;59.75
5380;BME280;2713;42.680;23.310;2023-04-01T02:03:20;94086.50;;;13.70;58.28
5380;BME280;2713;42.680;23.310;2023-04-01T02:05:50;94083.94;;;13.82;58.07
5380;BME280;2713;42.680;23.310;2023-04-01T02:08:22;94084.78;;;14.06;57.82
5380;BME280;2713;42.680;23.310;2023-04-01T02:10:55;94071.97;;;14.16;57.78
5380;BME280;2713;42.680;23.310;2023-04-01T02:13:29;94072.97;;;14.15;57.26
5380;BME280;2713;42.680;23.310;2023-04-01T02:16:00;94077.06;;;14.11;57.26
5380;BME280;2713;42.680;23.310;2023-04-01T02:18:32;94068.75;;;14.02;58.31
5380;BME280;2713;42.680;23.310;2023-04-01T02:21:02;94065.72;;;14.17;56.80
5380;BME280;2713;42.680;23.310;2023-04-01T02:23:34;94064.25;;;14.21;56.65
5380;BME280;2713;42.680;23.310;2023-04-01T02:26:03;94063.81;;;14.24;56.44
5380;BME280;2713;42.680;23.310;2023-04-01T02:28:32;94070.03;;;14.23;56.92
5380;BME280;2713;42.680;23.310;2023-04-01T02:31:00;94074.34;;;14.06;57.30
5380;BME280;2713;42.680;23.310;2023-04-01T02:33:30;94074.81;;;14.26;56.91
5380;BME280;2713;42.680;23.310;2023-04-01T02:35:57;94078.91;;;14.22;56.90
5380;BME280;2713;42.680;23.310;2023-04-01T02:38:24;94080.97;;;14.20;56.59
5380;BME280;2713;42.680;23.310;2023-04-01T02:40:58;94070.41;;;14.27;56.36
5380;BME280;2713;42.680;23.310;2023-04-01T02:43:26;94080.03;;;14.26;56.62
5380;BME280;2713;42.680;23.310;2023-04-01T02:45:53;94081.41;;;14.17;57.43
5380;BME280;2713;42.680;23.310;2023-04-01T02:48:20;94081.31;;;14.23;57.26
5380;BME280;2713;42.680;23.310;2023-04-01T02:50:47;94082.91;;;14.25;57.73
5380;BME280;2713;42.680;23.310;2023-04-01T02:53:14;94090.78;;;14.36;56.64
5380;BME280;2713;42.680;23.310;2023-04-01T02:55:40;94097.59;;;14.37;56.33
5380;BME280;2713;42.680;23.310;2023-04-01T02:58:09;94089.16;;;14.35;56.76
5380;BME280;2713;42.680;23.310;2023-04-01T03:00:36;94102.47;;;14.34;56.93
5380;BME280;2713;42.680;23.310;2023-04-01T03:03:03;94098.06;;;14.34;56.50
5380;BME280;2713;42.680;23.310;2023-04-01T03:05:30;94111.56;;;14.31;56.82
5380;BME280;2713;42.680;23.310;2023-04-01T03:07:57;94110.63;;;14.26;56.61
5380;BME280;2713;42.680;23.310;2023-04-01T03:10:24;94110.97;;;14.29;56.67
5380;BME280;2713;42.680;23.310;2023-04-01T03:12:51;94109.72;;;14.20;56.73
5380;BME280;2713;42.680;23.310;2023-04-01T03:15:19;94105.28;;;14.32;56.53
5380;BME280;2713;42.680;23.310;2023-04-01T03:17:46;94113.03;;;14.39;56.90
5380;BME280;2713;42.680;23.310;2023-04-01T03:20:13;94108.28;;;14.36;56.15
5380;BME280;2713;42.680;23.310;2023-04-01T03:22:40;94104.22;;;14.10;57.05
5380;BME280;2713;42.680;23.310;2023-04-01T03:25:08;94122.63;;;14.03;57.68
5380;BME280;2713;42.680;23.310;2023-04-01T03:27:37;94117.50;;;13.97;58.12
5380;BME280;2713;42.680;23.310;2023-04-01T03:30:06;94126.28;;;14.14;57.93
5380;BME280;2713;42.680;23.310;2023-04-01T03:32:41;94130.03;;;14.18;57.42
5380;BME280;2713;42.680;23.310;2023-04-01T03:35:08;94122.31;;;14.23;57.85
5380;BME280;2713;42.680;23.310;2023-04-01T03:37:36;94118.25;;;14.27;58.08
5380;BME280;2713;42.680;23.310;2023-04-01T03:40:03;94114.59;;;14.28;57.27
5380;BME280;2713;42.680;23.310;2023-04-01T03:42:31;94101.88;;;14.20;57.57
5380;BME280;2713;42.680;23.310;2023-04-01T03:44:58;94089.22;;;14.05;57.36
5380;BME280;2713;42.680;23.310;2023-04-01T03:47:25;94073.31;;;13.65;59.27
5380;BME280;2713;42.680;23.310;2023-04-01T03:49:53;94053.81;;;13.38;59.18
5380;BME280;2713;42.680;23.310;2023-04-01T03:52:20;94046.22;;;12.82;61.33
5380;BME280;2713;42.680;23.310;2023-04-01T03:54:47;94040.31;;;12.50;63.13
5380;BME280;2713;42.680;23.310;2023-04-01T03:57:14;94038.75;;;12.86;62.31
5380;BME280;2713;42.680;23.310;2023-04-01T03:59:40;94020.66;;;12.73;62.61
5380;BME280;2713;42.680;23.310;2023-04-01T04:02:07;94010.28;;;12.66;62.63
5380;BME280;2713;42.680;23.310;2023-04-01T04:04:35;94008.81;;;12.88;61.29
5380;BME280;2713;42.680;23.310;2023-04-01T04:07:03;94014.47;;;12.85;61.06
5380;BME280;2713;42.680;23.310;2023-04-01T04:09:43;94000.22;;;12.69;62.50
5380;BME280;2713;42.680;23.310;2023-04-01T04:12:10;93987.66;;;12.96;61.26
5380;BME280;2713;42.680;23.310;2023-04-01T04:14:37;93984.38;;;13.19;59.40
5380;BME280;2713;42.680;23.310;2023-04-01T04:17:04;93988.75;;;13.25;58.04
5380;BME280;2713;42.680;23.310;2023-04-01T04:19:32;93987.78;;;13.19;59.18
5380;BME280;2713;42.680;23.310;2023-04-01T04:22:00;93977.94;;;13.22;59.63
5380;BME280;2713;42.680;23.310;2023-04-01T04:24:29;93988.59;;;13.20;58.86
5380;BME280;2713;42.680;23.310;2023-04-01T04:27:01;93987.50;;;12.91;59.94
5380;BME280;2713;42.680;23.310;2023-04-01T04:29:29;93963.94;;;13.16;59.87
5380;BME280;2713;42.680;23.310;2023-04-01T04:31:56;93960.16;;;13.30;58.11
5380;BME280;2713;42.680;23.310;2023-04-01T04:34:23;93970.47;;;13.25;56.73
5380;BME280;2713;42.680;23.310;2023-04-01T04:36:50;93961.50;;;13.21;57.56
5380;BME280;2713;42.680;23.310;2023-04-01T04:39:18;93966.53;;;13.34;57.09
5380;BME280;2713;42.680;23.310;2023-04-01T04:41:47;93977.53;;;13.36;57.03
5380;BME280;2713;42.680;23.310;2023-04-01T04:44:13;93972.19;;;13.31;57.40
5380;BME280;2713;42.680;23.310;2023-04-01T04:46:41;93955.31;;;13.45;57.24
5380;BME280;2713;42.680;23.310;2023-04-01T04:49:13;93938.16;;;13.49;57.66
5380;BME280;2713;42.680;23.310;2023-04-01T04:51:40;93928.88;;;13.53;58.52
5380;BME280;2713;42.680;23.310;2023-04-01T04:54:07;93932.41;;;13.59;57.41
5380;BME280;2713;42.680;23.310;2023-04-01T04:57:11;93950.25;;;13.73;56.92
5380;BME280;2713;42.680;23.310;2023-04-01T04:59:44;93956.97;;;13.81;55.85
5380;BME280;2713;42.680;23.310;2023-04-01T05:02:16;93933.56;;;13.63;56.01
5380;BME280;2713;42.680;23.310;2023-04-01T05:04:43;93926.72;;;13.50;56.78
5380;BME280;2713;42.680;23.310;2023-04-01T05:07:10;93928.56;;;13.61;55.83
5380;BME280;2713;42.680;23.310;2023-04-01T05:09:37;93937.06;;;13.68;56.09
5380;BME280;2713;42.680;23.310;2023-04-01T05:12:04;93927.78;;;13.73;55.75
5380;BME280;2713;42.680;23.310;2023-04-01T05:14:55;93915.50;;;13.61;56.08
5380;BME280;2713;42.680;23.310;2023-04-01T05:17:23;93922.31;;;13.62;56.17
5380;BME280;2713;42.680;23.310;2023-04-01T05:19:49;93907.44;;;13.75;55.71
5380;BME280;2713;42.680;23.310;2023-04-01T05:22:16;93894.72;;;13.55;56.53
5380;BME280;2713;42.680;23.310;2023-04-01T05:24:43;93891.19;;;13.49;56.28
5380;BME280;2713;42.680;23.310;2023-04-01T05:27:11;93893.22;;;13.06;57.02
5380;BME280;2713;42.680;23.310;2023-04-01T05:29:40;93886.13;;;13.13;56.97
5380;BME280;2713;42.680;23.310;2023-04-01T05:32:13;93904.13;;;13.44;56.19
5380;BME280;2713;42.680;23.310;2023-04-01T05:34:40;93915.28;;;13.63;56.38
5380;BME280;2713;42.680;23.310;2023-04-01T05:37:07;93893.53;;;13.39;56.63
5380;BME280;2713;42.680;23.310;2023-04-01T05:39:36;93895.06;;;13.58;56.65
5380;BME280;2713;42.680;23.310;2023-04-01T05:42:05;93903.25;;;13.85;55.87
5380;BME280;2713;42.680;23.310;2023-04-01T05:44:32;93895.88;;;13.94;55.75
5380;BME280;2713;42.680;23.310;2023-04-01T05:47:05;93891.53;;;13.99;54.96
5380;BME280;2713;42.680;23.310;2023-04-01T05:49:34;93890.53;;;14.00;53.75
5380;BME280;2713;42.680;23.310;2023-04-01T05:52:02;93895.59;;;14.18;53.33
5380;BME280;2713;42.680;23.310;2023-04-01T05:54:30;93885.03;;;14.48;52.01
5380;BME280;2713;42.680;23.310;2023-04-01T05:56:57;93887.56;;;14.71;50.91
5380;BME280;2713;42.680;23.310;2023-04-01T05:59:24;93875.53;;;15.32;49.93
5380;BME280;2713;42.680;23.310;2023-04-01T06:01:51;93873.31;;;16.07;47.57
5380;BME280;2713;42.680;23.310;2023-04-01T06:04:19;93875.88;;;16.89;46.73
5380;BME280;2713;42.680;23.310;2023-04-01T06:06:47;93869.75;;;17.32;45.16
5380;BME280;2713;42.680;23.310;2023-04-01T06:09:16;93879.88;;;17.50;44.28
5380;BME280;2713;42.680;23.310;2023-04-01T06:12:12;93879.22;;;17.97;43.26
5380;BME280;2713;42.680;23.310;2023-04-01T06:14:58;93884.75;;;17.37;43.51
5380;BME280;2713;42.680;23.310;2023-04-01T06:17:40;93872.97;;;17.12;44.01
5380;BME280;2713;42.680;23.310;2023-04-01T06:20:13;93866.91;;;16.85;45.14
5380;BME280;2713;42.680;23.310;2023-04-01T06:22:51;93867.69;;;16.81;45.29
5380;BME280;2713;42.680;23.310;2023-04-01T06:25:41;93878.19;;;16.81;45.51
5380;BME280;2713;42.680;23.310;2023-04-01T06:31:24;93880.66;;;16.49;44.92
5380;BME280;2713;42.680;23.310;2023-04-01T06:34:05;93861.44;;;16.43;44.97
5380;BME280;2713;42.680;23.310;2023-04-01T06:36:45;93864.13;;;15.88;46.55
5380;BME280;2713;42.680;23.310;2023-04-01T06:39:46;93858.69;;;16.11;45.85
5380;BME280;2713;42.680;23.310;2023-04-01T06:42:30;93855.25;;;16.11;46.17
5380;BME280;2713;42.680;23.310;2023-04-01T06:45:12;93837.97;;;15.71;47.17
5380;BME280;2713;42.680;23.310;2023-04-01T06:48:11;93838.09;;;15.15;48.80
5380;BME280;2713;42.680;23.310;2023-04-01T06:51:08;93838.41;;;15.18;49.50
5380;BME280;2713;42.680;23.310;2023-04-01T06:54:03;93829.75;;;15.18;49.56
5380;BME280;2713;42.680;23.310;2023-04-01T06:56:54;93830.56;;;15.18;50.17
5380;BME280;2713;42.680;23.310;2023-04-01T06:59:25;93826.34;;;15.17;50.59
5380;BME280;2713;42.680;23.310;2023-04-01T07:01:56;93817.31;;;15.08;50.99
5380;BME280;2713;42.680;23.310;2023-04-01T07:04:27;93825.31;;;15.02;51.26
5380;BME280;2713;42.680;23.310;2023-04-01T07:06:58;93840.69;;;15.15;51.14
5380;BME280;2713;42.680;23.310;2023-04-01T07:09:30;93833.97;;;15.19;51.28
5380;BME280;2713;42.680;23.310;2023-04-01T07:12:33;93829.38;;;15.43;51.04
5380;BME280;2713;42.680;23.310;2023-04-01T07:15:19;93815.31;;;15.65;50.59
5380;BME280;2713;42.680;23.310;2023-04-01T07:17:53;93817.44;;;15.68;50.86
5380;BME280;2713;42.680;23.310;2023-04-01T07:20:24;93812.53;;;15.39;51.20
5380;BME280;2713;42.680;23.310;2023-04-01T07:22:56;93820.09;;;15.35;51.71
5380;BME280;2713;42.680;23.310;2023-04-01T07:25:53;93822.31;;;15.60;51.71
5380;BME280;2713;42.680;23.310;2023-04-01T07:28:32;93816.06;;;15.61;52.00
5380;BME280;2713;42.680;23.310;2023-04-01T07:31:15;93835.22;;;15.83;51.71
5380;BME280;2713;42.680;23.310;2023-04-01T07:33:54;93835.47;;;15.82;51.99
5380;BME280;2713;42.680;23.310;2023-04-01T07:36:33;93851.91;;;15.77;51.87
5380;BME280;2713;42.680;23.310;2023-04-01T07:39:10;93833.25;;;15.73;52.77
5380;BME280;2713;42.680;23.310;2023-04-01T07:42:01;93824.63;;;15.56;52.86
5380;BME280;2713;42.680;23.310;2023-04-01T07:44:40;93824.47;;;15.63;53.29
5380;BME280;2713;42.680;23.310;2023-04-01T07:47:24;93807.16;;;15.79;52.51
5380;BME280;2713;42.680;23.310;2023-04-01T07:50:05;93815.72;;;15.74;52.21
5380;BME280;2713;42.680;23.310;2023-04-01T07:52:43;93815.38;;;15.87;52.54
5380;BME280;2713;42.680;23.310;2023-04-01T07:55:23;93813.59;;;15.93;52.22
5380;BME280;2713;42.680;23.310;2023-04-01T07:58:01;93796.72;;;15.84;52.54
5380;BME280;2713;42.680;23.310;2023-04-01T08:00:43;93810.75;;;15.94;51.71
5380;BME280;2713;42.680;23.310;2023-04-01T08:03:43;93801.53;;;15.92;51.76
5380;BME280;2713;42.680;23.310;2023-04-01T08:06:22;93805.31;;;16.01;51.82
5380;BME280;2713;42.680;23.310;2023-04-01T08:08:58;93808.56;;;16.08;51.68
5380;BME280;2713;42.680;23.310;2023-04-01T08:11:56;93784.91;;;16.03;51.82
5380;BME280;2713;42.680;23.310;2023-04-01T08:14:53;93784.41;;;15.84;52.05
5380;BME280;2713;42.680;23.310;2023-04-01T08:17:48;93768.00;;;15.94;51.78
5380;BME280;2713;42.680;23.310;2023-04-01T08:20:33;93775.59;;;16.12;51.43
5380;BME280;2713;42.680;23.310;2023-04-01T08:23:07;93762.03;;;16.20;51.58
5380;BME280;2713;42.680;23.310;2023-04-01T08:25:42;93768.00;;;16.37;50.71
5380;BME280;2713;42.680;23.310;2023-04-01T08:28:17;93748.16;;;16.19;51.05
5380;BME280;2713;42.680;23.310;2023-04-01T08:30:50;93749.09;;;16.35;51.16
5380;BME280;2713;42.680;23.310;2023-04-01T08:33:24;93754.88;;;16.59;50.32
5380;BME280;2713;42.680;23.310;2023-04-01T08:36:03;93725.91;;;17.07;49.11
5380;BME280;2713;42.680;23.310;2023-04-01T08:38:36;93701.66;;;17.37;48.18
5380;BME280;2713;42.680;23.310;2023-04-01T08:45:05;93705.78;;;18.27;46.28
5380;BME280;2713;42.680;23.310;2023-04-01T08:48:00;93697.44;;;18.70;45.19
5380;BME280;2713;42.680;23.310;2023-04-01T08:56:43;93687.41;;;20.17;42.02
5380;BME280;2713;42.680;23.310;2023-04-01T08:59:48;93686.38;;;20.67;41.28
5380;BME280;2713;42.680;23.310;2023-04-01T09:02:51;93696.56;;;20.40;40.37
5380;BME280;2713;42.680;23.310;2023-04-01T09:05:36;93694.38;;;19.93;41.22
5380;BME280;2713;42.680;23.310;2023-04-01T09:08:18;93687.69;;;19.52;41.33
5380;BME280;2713;42.680;23.310;2023-04-01T09:11:08;93691.59;;;19.39;41.36
5380;BME280;2713;42.680;23.310;2023-04-01T09:14:07;93689.50;;;19.36;40.10
5380;BME280;2713;42.680;23.310;2023-04-01T09:16:58;93692.16;;;19.31;40.30
5380;BME280;2713;42.680;23.310;2023-04-01T09:19:40;93674.53;;;19.06;40.98
5380;BME280;2713;42.680;23.310;2023-04-01T09:22:22;93673.75;;;18.81;41.93
5380;BME280;2713;42.680;23.310;2023-04-01T09:27:57;93666.66;;;18.81;40.01
5380;BME280;2713;42.680;23.310;2023-04-01T09:30:48;93657.38;;;18.38;40.82
5380;BME280;2713;42.680;23.310;2023-04-01T09:36:45;93657.41;;;18.48;41.66
5380;BME280;2713;42.680;23.310;2023-04-01T09:39:34;93655.59;;;18.54;41.96
5380;BME280;2713;42.680;23.310;2023-04-01T09:42:34;93651.13;;;18.54;41.46
5380;BME280;2713;42.680;23.310;2023-04-01T09:45:29;93646.31;;;18.46;41.84
5380;BME280;2713;42.680;23.310;2023-04-01T09:48:11;93622.66;;;18.46;41.46
5380;BME280;2713;42.680;23.310;2023-04-01T09:50:49;93621.88;;;18.81;41.07
5380;BME280;2713;42.680;23.310;2023-04-01T09:53:36;93612.66;;;19.04;41.00
5380;BME280;2713;42.680;23.310;2023-04-01T09:56:24;93612.06;;;19.27;39.71
5380;BME280;2713;42.680;23.310;2023-04-01T10:08:19;93578.72;;;19.66;37.87
5380;BME280;2713;42.680;23.310;2023-04-01T10:11:13;93585.69;;;19.37;38.77
5380;BME280;2713;42.680;23.310;2023-04-01T10:14:07;93588.47;;;18.87;39.65
5380;BME280;2713;42.680;23.310;2023-04-01T10:17:08;93592.09;;;19.01;39.85
5380;BME280;2713;42.680;23.310;2023-04-01T10:20:02;93581.56;;;19.01;39.65
5380;BME280;2713;42.680;23.310;2023-04-01T10:26:19;93570.28;;;18.90;39.75
5380;BME280;2713;42.680;23.310;2023-04-01T10:29:32;93564.25;;;18.74;40.26
5380;BME280;2713;42.680;23.310;2023-04-01T10:32:40;93576.91;;;18.52;41.21
5380;BME280;2713;42.680;23.310;2023-04-01T10:38:49;93571.53;;;17.77;44.12
5380;BME280;2713;42.680;23.310;2023-04-01T10:41:44;93532.13;;;17.77;43.77
5380;BME280;2713;42.680;23.310;2023-04-01T10:54:03;93549.09;;;17.49;44.50
5380;BME280;2713;42.680;23.310;2023-04-01T10:56:53;93536.97;;;17.38;45.05
5380;BME280;2713;42.680;23.310;2023-04-01T11:00:20;93532.50;;;17.33;44.50
5380;BME280;2713;42.680;23.310;2023-04-01T11:03:46;93524.34;;;17.30;45.54
5380;BME280;2713;42.680;23.310;2023-04-01T11:13:08;93517.56;;;17.39;45.74
5380;BME280;2713;42.680;23.310;2023-04-01T11:22:11;93522.94;;;17.84;44.59
5380;BME280;2713;42.680;23.310;2023-04-01T11:25:29;93543.72;;;18.01;43.56
5380;BME280;2713;42.680;23.310;2023-04-01T11:28:54;93553.19;;;18.07;43.72
5380;BME280;2713;42.680;23.310;2023-04-01T11:31:36;93594.22;;;17.98;41.58
5380;BME280;2713;42.680;23.310;2023-04-01T11:34:16;93591.03;;;17.91;42.52
5380;BME280;2713;42.680;23.310;2023-04-01T11:36:55;93600.47;;;17.87;45.20
5380;BME280;2713;42.680;23.310;2023-04-01T11:39:34;93608.88;;;17.79;47.16
5380;BME280;2713;42.680;23.310;2023-04-01T11:42:46;93648.66;;;17.45;49.38
5380;BME280;2713;42.680;23.310;2023-04-01T11:45:41;93679.97;;;17.10;52.72
5380;BME280;2713;42.680;23.310;2023-04-01T11:48:29;93714.53;;;16.65;56.59
5380;BME280;2713;42.680;23.310;2023-04-01T11:51:10;93751.69;;;15.87;62.45
5380;BME280;2713;42.680;23.310;2023-04-01T11:53:47;93778.44;;;15.17;68.24
5380;BME280;2713;42.680;23.310;2023-04-01T11:56:50;93779.19;;;14.67;70.38
5380;BME280;2713;42.680;23.310;2023-04-01T11:59:35;93777.19;;;14.58;71.83
5380;BME280;2713;42.680;23.310;2023-04-01T12:02:11;93792.56;;;14.54;70.72
5380;BME280;2713;42.680;23.310;2023-04-01T12:04:58;93799.56;;;14.37;71.96
5380;BME280;2713;42.680;23.310;2023-04-01T12:10:39;93775.09;;;14.43;72.38
5380;BME280;2713;42.680;23.310;2023-04-01T12:13:19;93771.56;;;14.66;72.22
5380;BME280;2713;42.680;23.310;2023-04-01T12:16:03;93772.31;;;14.78;72.18
5380;BME280;2713;42.680;23.310;2023-04-01T12:18:36;93768.50;;;14.69;71.52
5380;BME280;2713;42.680;23.310;2023-04-01T12:21:14;93778.44;;;15.00;71.46
5380;BME280;2713;42.680;23.310;2023-04-01T12:24:25;93762.31;;;15.25;71.09
5380;BME280;2713;42.680;23.310;2023-04-01T12:27:02;93768.13;;;15.60;73.37
5380;BME280;2713;42.680;23.310;2023-04-01T12:29:49;93773.63;;;15.81;69.97
5380;BME280;2713;42.680;23.310;2023-04-01T12:32:26;93781.38;;;15.92;69.91
5380;BME280;2713;42.680;23.310;2023-04-01T12:35:15;93783.34;;;15.63;71.41
5380;BME280;2713;42.680;23.310;2023-04-01T12:37:53;93784.38;;;15.62;72.21
5380;BME280;2713;42.680;23.310;2023-04-01T12:40:31;93790.00;;;15.38;74.16
5380;BME280;2713;42.680;23.310;2023-04-01T12:43:14;93795.72;;;15.18;73.44
5380;BME280;2713;42.680;23.310;2023-04-01T12:45:55;93777.41;;;15.18;74.61
5380;BME280;2713;42.680;23.310;2023-04-01T12:48:50;93769.88;;;15.21;74.94
5380;BME280;2713;42.680;23.310;2023-04-01T12:54:48;93775.91;;;15.22;74.08
5380;BME280;2713;42.680;23.310;2023-04-01T13:00:34;93751.00;;;15.03;75.60
5380;BME280;2713;42.680;23.310;2023-04-01T13:03:35;93750.69;;;15.16;73.88
5380;BME280;2713;42.680;23.310;2023-04-01T13:06:29;93734.00;;;15.22;72.02
5380;BME280;2713;42.680;23.310;2023-04-01T13:09:08;93743.13;;;15.36;71.90
5380;BME280;2713;42.680;23.310;2023-04-01T13:11:53;93721.47;;;15.41;71.92
5380;BME280;2713;42.680;23.310;2023-04-01T13:14:41;93712.88;;;15.45;72.77
5380;BME280;2713;42.680;23.310;2023-04-01T13:17:16;93669.59;;;14.83;73.54
5380;BME280;2713;42.680;23.310;2023-04-01T13:19:50;93710.00;;;15.08;74.31
5380;BME280;2713;42.680;23.310;2023-04-01T13:22:22;93701.47;;;15.35;75.80
5380;BME280;2713;42.680;23.310;2023-04-01T13:24:57;93689.88;;;15.47;75.87
5380;BME280;2713;42.680;23.310;2023-04-01T13:27:30;93687.19;;;15.86;75.27
5380;BME280;2713;42.680;23.310;2023-04-01T13:30:10;93679.09;;;15.87;72.85
5380;BME280;2713;42.680;23.310;2023-04-01T13:32:47;93673.56;;;15.84;72.14
5380;BME280;2713;42.680;23.310;2023-04-01T13:35:25;93676.50;;;16.14;70.69
5380;BME280;2713;42.680;23.310;2023-04-01T13:38:08;93663.56;;;16.29;71.71
5380;BME280;2713;42.680;23.310;2023-04-01T13:40:45;93652.06;;;16.35;69.57
5380;BME280;2713;42.680;23.310;2023-04-01T13:43:19;93647.47;;;16.20;66.09
5380;BME280;2713;42.680;23.310;2023-04-01T13:46:04;93645.19;;;16.29;65.85
5380;BME280;2713;42.680;23.310;2023-04-01T13:48:45;93646.97;;;16.50;65.00
5380;BME280;2713;42.680;23.310;2023-04-01T13:54:49;93639.38;;;16.86;60.34
5380;BME280;2713;42.680;23.310;2023-04-01T13:57:33;93627.38;;;17.00;61.27
5380;BME280;2713;42.680;23.310;2023-04-01T14:00:19;93629.88;;;16.80;64.93
5380;BME280;2713;42.680;23.310;2023-04-01T14:03:12;93623.13;;;16.25;66.39
5380;BME280;2713;42.680;23.310;2023-04-01T14:05:56;93620.81;;;16.34;61.43
5380;BME280;2713;42.680;23.310;2023-04-01T14:08:34;93610.44;;;16.44;61.74
5380;BME280;2713;42.680;23.310;2023-04-01T14:11:12;93612.75;;;16.67;59.78
5380;BME280;2713;42.680;23.310;2023-04-01T14:13:46;93619.38;;;16.80;59.84
5380;BME280;2713;42.680;23.310;2023-04-01T14:16:47;93612.66;;;16.94;56.31
5380;BME280;2713;42.680;23.310;2023-04-01T14:19:32;93612.50;;;17.10;52.12
5380;BME280;2713;42.680;23.310;2023-04-01T14:22:13;93595.38;;;16.98;52.36
5380;BME280;2713;42.680;23.310;2023-04-01T14:25:10;93595.50;;;17.28;49.25
5380;BME280;2713;42.680;23.310;2023-04-01T14:27:52;93586.59;;;17.29;49.45
5380;BME280;2713;42.680;23.310;2023-04-01T14:30:37;93584.97;;;17.23;51.03
5380;BME280;2713;42.680;23.310;2023-04-01T14:33:20;93585.06;;;17.38;49.64
5380;BME280;2713;42.680;23.310;2023-04-01T14:35:57;93569.00;;;17.35;49.09
5380;BME280;2713;42.680;23.310;2023-04-01T14:38:39;93574.59;;;17.48;48.64
5380;BME280;2713;42.680;23.310;2023-04-01T14:41:34;93576.47;;;17.58;48.70
5380;BME280;2713;42.680;23.310;2023-04-01T14:44:30;93580.78;;;17.84;46.74
5380;BME280;2713;42.680;23.310;2023-04-01T14:47:39;93583.13;;;17.81;47.30
5380;BME280;2713;42.680;23.310;2023-04-01T14:50:14;93580.94;;;17.57;46.46
5380;BME280;2713;42.680;23.310;2023-04-01T14:52:44;93583.66;;;17.20;54.58
5380;BME280;2713;42.680;23.310;2023-04-01T14:55:25;93574.94;;;17.05;59.01
5380;BME280;2713;42.680;23.310;2023-04-01T14:58:15;93576.09;;;16.45;61.31
5380;BME280;2713;42.680;23.310;2023-04-01T15:01:11;93576.00;;;16.35;62.19
5380;BME280;2713;42.680;23.310;2023-04-01T15:03:48;93581.72;;;16.27;62.90
5380;BME280;2713;42.680;23.310;2023-04-01T15:06:38;93588.47;;;15.64;63.55
5380;BME280;2713;42.680;23.310;2023-04-01T15:09:16;93592.97;;;15.69;63.80
5380;BME280;2713;42.680;23.310;2023-04-01T15:11:54;93592.53;;;15.77;64.08
5380;BME280;2713;42.680;23.310;2023-04-01T15:14:51;93587.97;;;15.67;63.93
5380;BME280;2713;42.680;23.310;2023-04-01T15:17:40;93600.38;;;15.12;65.39
5380;BME280;2713;42.680;23.310;2023-04-01T15:20:29;93605.97;;;15.20;66.07